sensor_id;sensor_type;location;lat;lon;timestamp;pressure;altitude;pressure_sealevel;temperature;humidity
71889;BME280;59762;49.998;14.858;2023-04-04T00:00:17;98352.47;;;-0.23;77.57
71889;BME280;59762;49.998;14.858;2023-04-04T00:03:03;98346.94;;;-0.17;76.94
71889;BME280;59762;49.998;14.858;2023-04-04T00:05:28;98341.56;;;-0.14;76.43
71889;BME280;59762;49.998;14.858;2023-04-04T00:07:54;98342.31;;;-0.12;76.13
71889;BME280;59762;49.998;14.858;2023-04-04T00:10:20;98335.94;;;-0.06;74.24
71889;BME280;59762;49.998;14.858;2023-04-04T00:12:45;98333.88;;;-0.18;75.85
71889;BME280;59762;49.998;14.858;2023-04-04T00:15:11;98326.59;;;-0.30;73.67
71889;BME280;59762;49.998;14.858;2023-04-04T00:17:37;98326.16;;;-0.21;71.93
71889;BME280;59762;49.998;14.858;2023-04-04T00:20:03;98327.06;;;-0.22;73.85
71889;BME280;59762;49.998;14.858;2023-04-04T00:22:29;98323.16;;;-0.32;74.63
71889;BME280;59762;49.998;14.858;2023-04-04T00:24:54;98317.84;;;-0.31;74.55
71889;BME280;59762;49.998;14.858;2023-04-04T00:27:20;98315.66;;;-0.40;73.81
71889;BME280;59762;49.998;14.858;2023-04-04T00:29:46;98317.84;;;-0.49;74.31
71889;BME280;59762;49.998;14.858;2023-04-04T00:32:11;98313.13;;;-0.61;76.43
71889;BME280;59762;49.998;14.858;2023-04-04T00:34:37;98310.03;;;-0.69;76.83
71889;BME280;59762;49.998;14.858;2023-04-04T00:37:03;98310.34;;;-0.77;77.27
71889;BME280;59762;49.998;14.858;2023-04-04T00:39:32;98313.13;;;-0.61;79.34
71889;BME280;59762;49.998;14.858;2023-04-04T00:41:58;98300.38;;;-0.69;77.83
71889;BME280;59762;49.998;14.858;2023-04-04T00:44:23;98302.63;;;-0.61;80.86
71889;BME280;59762;49.998;14.858;2023-04-04T00:46:51;98293.66;;;-0.56;79.88
71889;BME280;59762;49.998;14.858;2023-04-04T00:49:16;98299.72;;;-0.74;78.26
71889;BME280;59762;49.998;14.858;2023-04-04T00:51:43;98301.84;;;-0.82;77.34
71889;BME280;59762;49.998;14.858;2023-04-04T00:54:09;98296.19;;;-0.73;79.93
71889;BME280;59762;49.998;14.858;2023-04-04T00:56:36;98298.22;;;-0.79;78.94
71889;BME280;59762;49.998;14.858;2023-04-04T00:59:03;98294.53;;;-0.75;81.62
71889;BME280;59762;49.998;14.858;2023-04-04T01:01:29;98294.84;;;-0.81;79.25
71889;BME280;59762;49.998;14.858;2023-04-04T01:03:56;98292.84;;;-0.76;77.95
71889;BME280;59762;49.998;14.858;2023-04-04T01:06:22;98293.78;;;-0.77;79.57
71889;BME280;59762;49.998;14.858;2023-04-04T01:08:48;98290.63;;;-0.85;77.93
71889;BME280;59762;49.998;14.858;2023-04-04T01:11:15;98292.22;;;-0.81;79.81
71889;BME280;59762;49.998;14.858;2023-04-04T01:13:41;98288.72;;;-0.82;80.75
71889;BME280;59762;49.998;14.858;2023-04-04T01:16:08;98289.59;;;-0.81;79.16
71889;BME280;59762;49.998;14.858;2023-04-04T01:18:35;98288.59;;;-0.79;79.22
71889;BME280;59762;49.998;14.858;2023-04-04T01:21:04;98278.41;;;-0.85;77.80
71889;BME280;59762;49.998;14.858;2023-04-04T01:23:42;98280.34;;;-0.90;79.27
71889;BME280;59762;49.998;14.858;2023-04-04T01:26:09;98281.03;;;-0.85;78.13
71889;BME280;59762;49.998;14.858;2023-04-04T01:28:34;98278.13;;;-0.79;78.16
71889;BME280;59762;49.998;14.858;2023-04-04T01:31:01;98280.22;;;-0.87;78.59
71889;BME280;59762;49.998;14.858;2023-04-04T01:33:35;98276.78;;;-0.69;77.15
71889;BME280;59762;49.998;14.858;2023-04-04T01:38:56;98279.25;;;-0.66;76.98
71889;BME280;59762;49.998;14.858;2023-04-04T01:41:24;98273.16;;;-0.66;76.97
71889;BME280;59762;49.998;14.858;2023-04-04T01:43:51;98268.13;;;-0.71;77.89
71889;BME280;59762;49.998;14.858;2023-04-04T01:46:17;98272.97;;;-0.62;76.83
71889;BME280;59762;49.998;14.858;2023-04-04T01:48:46;98268.13;;;-0.71;78.89
71889;BME280;59762;49.998;14.858;2023-04-04T01:51:12;98273.44;;;-0.72;78.47
71889;BME280;59762;49.998;14.858;2023-04-04T01:53:38;98266.16;;;-0.66;77.12
71889;BME280;59762;49.998;14.858;2023-04-04T01:56:04;98271.53;;;-0.69;78.20
71889;BME280;59762;49.998;14.858;2023-04-04T01:58:29;98269.75;;;-0.68;78.04
71889;BME280;59762;49.998;14.858;2023-04-04T02:00:56;98263.25;;;-0.78;78.94
71889;BME280;59762;49.998;14.858;2023-04-04T02:03:21;98263.25;;;-0.78;79.39
71889;BME280;59762;49.998;14.858;2023-04-04T02:05:47;98256.91;;;-0.74;77.66
71889;BME280;59762;49.998;14.858;2023-04-04T02:08:13;98254.84;;;-0.68;81.20
71889;BME280;59762;49.998;14.858;2023-04-04T02:10:40;98259.63;;;-0.76;78.63
71889;BME280;59762;49.998;14.858;2023-04-04T02:13:05;98262.31;;;-0.77;77.29
71889;BME280;59762;49.998;14.858;2023-04-04T02:15:33;98261.16;;;-0.90;79.39
71889;BME280;59762;49.998;14.858;2023-04-04T02:17:59;98265.53;;;-0.91;78.74
71889;BME280;59762;49.998;14.858;2023-04-04T02:20:26;98262.09;;;-0.91;78.20
71889;BME280;59762;49.998;14.858;2023-04-04T02:22:53;98261.09;;;-0.89;77.36
71889;BME280;59762;49.998;14.858;2023-04-04T02:25:20;98258.22;;;-1.03;77.92
71889;BME280;59762;49.998;14.858;2023-04-04T02:27:45;98264.44;;;-1.05;78.23
71889;BME280;59762;49.998;14.858;2023-04-04T02:30:12;98260.13;;;-1.06;76.71
71889;BME280;59762;49.998;14.858;2023-04-04T02:32:38;98262.81;;;-1.08;78.42
71889;BME280;59762;49.998;14.858;2023-04-04T02:35:04;98263.16;;;-1.15;79.76
71889;BME280;59762;49.998;14.858;2023-04-04T02:37:30;98257.91;;;-1.15;79.96
71889;BME280;59762;49.998;14.858;2023-04-04T02:39:56;98257.25;;;-1.20;78.22
71889;BME280;59762;49.998;14.858;2023-04-04T02:42:21;98260.94;;;-1.24;78.98
71889;BME280;59762;49.998;14.858;2023-04-04T02:44:47;98250.16;;;-1.18;77.91
71889;BME280;59762;49.998;14.858;2023-04-04T02:47:13;98257.38;;;-1.23;79.17
71889;BME280;59762;49.998;14.858;2023-04-04T02:49:38;98253.25;;;-1.29;79.80
71889;BME280;59762;49.998;14.858;2023-04-04T02:52:04;98260.28;;;-1.29;79.44
71889;BME280;59762;49.998;14.858;2023-04-04T02:54:30;98259.22;;;-1.25;81.05
71889;BME280;59762;49.998;14.858;2023-04-04T02:56:56;98261.22;;;-1.30;80.15
71889;BME280;59762;49.998;14.858;2023-04-04T02:59:22;98257.13;;;-1.37;78.31
71889;BME280;59762;49.998;14.858;2023-04-04T03:01:47;98266.03;;;-1.41;79.12
71889;BME280;59762;49.998;14.858;2023-04-04T03:04:13;98257.72;;;-1.31;80.43
71889;BME280;59762;49.998;14.858;2023-04-04T03:06:39;98258.91;;;-1.38;78.11
71889;BME280;59762;49.998;14.858;2023-04-04T03:09:07;98259.81;;;-1.39;80.36
71889;BME280;59762;49.998;14.858;2023-04-04T03:11:33;98252.81;;;-1.38;78.21
71889;BME280;59762;49.998;14.858;2023-04-04T03:13:59;98252.81;;;-1.38;77.99
71889;BME280;59762;49.998;14.858;2023-04-04T03:16:24;98253.41;;;-1.52;78.75
71889;BME280;59762;49.998;14.858;2023-04-04T03:18:51;98256.44;;;-1.41;80.12
71889;BME280;59762;49.998;14.858;2023-04-04T03:21:17;98247.44;;;-1.55;79.99
71889;BME280;59762;49.998;14.858;2023-04-04T03:23:43;98244.44;;;-1.46;82.25
71889;BME280;59762;49.998;14.858;2023-04-04T03:26:08;98249.72;;;-1.48;80.98
71889;BME280;59762;49.998;14.858;2023-04-04T03:28:35;98248.16;;;-1.52;81.19
71889;BME280;59762;49.998;14.858;2023-04-04T03:31:04;98246.03;;;-1.64;80.94
71889;BME280;59762;49.998;14.858;2023-04-04T03:33:31;98245.47;;;-1.50;79.04
71889;BME280;59762;49.998;14.858;2023-04-04T03:36:00;98253.41;;;-1.32;76.67
71889;BME280;59762;49.998;14.858;2023-04-04T03:38:26;98243.91;;;-1.34;77.12
71889;BME280;59762;49.998;14.858;2023-04-04T03:41:00;98250.00;;;-1.34;75.02
71889;BME280;59762;49.998;14.858;2023-04-04T03:43:26;98251.91;;;-1.37;76.75
71889;BME280;59762;49.998;14.858;2023-04-04T03:45:52;98252.59;;;-1.34;75.83
71889;BME280;59762;49.998;14.858;2023-04-04T03:48:19;98262.50;;;-1.60;78.47
71889;BME280;59762;49.998;14.858;2023-04-04T03:50:45;98267.59;;;-1.77;81.15
71889;BME280;59762;49.998;14.858;2023-04-04T03:53:11;98271.34;;;-1.63;79.94
71889;BME280;59762;49.998;14.858;2023-04-04T03:55:39;98262.28;;;-1.56;80.56
71889;BME280;59762;49.998;14.858;2023-04-04T03:58:06;98264.78;;;-1.53;78.17
71889;BME280;59762;49.998;14.858;2023-04-04T04:00:32;98258.56;;;-1.50;78.32
71889;BME280;59762;49.998;14.858;2023-04-04T04:02:58;98261.56;;;-1.39;78.53
71889;BME280;59762;49.998;14.858;2023-04-04T04:05:23;98259.09;;;-1.42;77.43
71889;BME280;59762;49.998;14.858;2023-04-04T04:07:49;98262.06;;;-1.50;79.61
71889;BME280;59762;49.998;14.858;2023-04-04T04:10:14;98272.00;;;-1.38;77.80
71889;BME280;59762;49.998;14.858;2023-04-04T04:12:41;98264.28;;;-1.41;79.04
71889;BME280;59762;49.998;14.858;2023-04-04T04:15:07;98259.03;;;-1.41;78.56
71889;BME280;59762;49.998;14.858;2023-04-04T04:17:33;98263.41;;;-1.41;79.26
71889;BME280;59762;49.998;14.858;2023-04-04T04:19:58;98265.19;;;-1.62;80.38
71889;BME280;59762;49.998;14.858;2023-04-04T04:22:24;98275.06;;;-1.68;79.64
71889;BME280;59762;49.998;14.858;2023-04-04T04:24:50;98272.59;;;-1.51;78.10
71889;BME280;59762;49.998;14.858;2023-04-04T04:27:16;98267.13;;;-1.47;77.02
71889;BME280;59762;49.998;14.858;2023-04-04T04:29:41;98268.47;;;-1.37;75.67
71889;BME280;59762;49.998;14.858;2023-04-04T04:32:07;98266.22;;;-1.46;76.53
71889;BME280;59762;49.998;14.858;2023-04-04T04:34:33;98267.13;;;-1.47;77.73
71889;BME280;59762;49.998;14.858;2023-04-04T04:36:58;98271.59;;;-1.49;77.79
71889;BME280;59762;49.998;14.858;2023-04-04T04:39:24;98267.13;;;-1.47;77.27
71889;BME280;59762;49.998;14.858;2023-04-04T04:41:50;98272.59;;;-1.51;76.70
71889;BME280;59762;49.998;14.858;2023-04-04T04:44:15;98272.25;;;-1.44;76.05
71889;BME280;59762;49.998;14.858;2023-04-04T04:46:41;98277.69;;;-1.48;77.76
71889;BME280;59762;49.998;14.858;2023-04-04T04:49:06;98271.84;;;-1.55;77.69
71889;BME280;59762;49.998;14.858;2023-04-04T04:51:32;98270.41;;;-1.42;76.94
71889;BME280;59762;49.998;14.858;2023-04-04T04:53:58;98266.75;;;-1.38;75.71
71889;BME280;59762;49.998;14.858;2023-04-04T04:56:24;98267.41;;;-1.33;75.39
71889;BME280;59762;49.998;14.858;2023-04-04T04:58:49;98268.38;;;-1.35;76.18
71889;BME280;59762;49.998;14.858;2023-04-04T05:01:15;98269.31;;;-1.36;75.51
71889;BME280;59762;49.998;14.858;2023-04-04T05:03:41;98269.78;;;-1.27;76.20
71889;BME280;59762;49.998;14.858;2023-04-04T05:06:07;98267.09;;;-1.25;75.49
71889;BME280;59762;49.998;14.858;2023-04-04T05:08:34;98266.75;;;-1.18;75.28
71889;BME280;59762;49.998;14.858;2023-04-04T05:11:00;98271.06;;;-1.17;76.87
71889;BME280;59762;49.998;14.858;2023-04-04T05:13:26;98266.81;;;-1.19;76.87
71889;BME280;59762;49.998;14.858;2023-04-04T05:15:51;98268.56;;;-1.20;75.31
71889;BME280;59762;49.998;14.858;2023-04-04T05:18:17;98274.53;;;-1.36;76.37
71889;BME280;59762;49.998;14.858;2023-04-04T05:20:43;98270.50;;;-1.23;77.14
71889;BME280;59762;49.998;14.858;2023-04-04T05:23:14;98273.34;;;-1.09;75.50
71889;BME280;59762;49.998;14.858;2023-04-04T05:25:40;98273.34;;;-1.09;76.94
71889;BME280;59762;49.998;14.858;2023-04-04T05:28:05;98278.88;;;-1.15;76.82
71889;BME280;59762;49.998;14.858;2023-04-04T05:30:32;98277.13;;;-0.96;76.17
71889;BME280;59762;49.998;14.858;2023-04-04T05:32:58;98277.00;;;-0.93;74.53
71889;BME280;59762;49.998;14.858;2023-04-04T05:35:23;98281.78;;;-0.83;74.92
71889;BME280;59762;49.998;14.858;2023-04-04T05:37:50;98279.31;;;-0.67;76.79
71889;BME280;59762;49.998;14.858;2023-04-04T05:40:16;98282.66;;;-0.82;74.62
71889;BME280;59762;49.998;14.858;2023-04-04T05:42:41;98277.25;;;-0.79;74.44
71889;BME280;59762;49.998;14.858;2023-04-04T05:45:08;98273.31;;;-0.69;75.45
71889;BME280;59762;49.998;14.858;2023-04-04T05:47:34;98284.03;;;-0.55;73.54
71889;BME280;59762;49.998;14.858;2023-04-04T05:50:00;98290.31;;;-0.59;74.30
71889;BME280;59762;49.998;14.858;2023-04-04T05:52:26;98281.28;;;-0.52;73.44
71889;BME280;59762;49.998;14.858;2023-04-04T05:54:52;98280.84;;;-0.43;73.74
71889;BME280;59762;49.998;14.858;2023-04-04T05:57:17;98285.03;;;-0.39;73.02
71889;BME280;59762;49.998;14.858;2023-04-04T05:59:43;98277.50;;;-0.28;72.60
71889;BME280;59762;49.998;14.858;2023-04-04T06:02:09;98287.13;;;-0.29;72.39
71889;BME280;59762;49.998;14.858;2023-04-04T06:04:34;98278.56;;;-0.32;72.64
71889;BME280;59762;49.998;14.858;2023-04-04T06:07:00;98292.38;;;-0.10;71.15
71889;BME280;59762;49.998;14.858;2023-04-04T06:09:26;98279.25;;;-0.10;70.70
71889;BME280;59762;49.998;14.858;2023-04-04T06:11:52;98282.47;;;0.13;70.19
71889;BME280;59762;49.998;14.858;2023-04-04T06:14:17;98284.25;;;0.13;69.02
71889;BME280;59762;49.998;14.858;2023-04-04T06:16:43;98281.31;;;0.02;68.75
71889;BME280;59762;49.998;14.858;2023-04-04T06:19:09;98289.03;;;0.05;68.31
71889;BME280;59762;49.998;14.858;2023-04-04T06:21:34;98288.69;;;-0.25;68.48
71889;BME280;59762;49.998;14.858;2023-04-04T06:24:00;98293.81;;;-0.03;66.65
71889;BME280;59762;49.998;14.858;2023-04-04T06:26:26;98295.31;;;0.19;66.03
71889;BME280;59762;49.998;14.858;2023-04-04T06:28:52;98291.81;;;-0.17;64.88
71889;BME280;59762;49.998;14.858;2023-04-04T06:31:17;98288.66;;;0.13;64.55
71889;BME280;59762;49.998;14.858;2023-04-04T06:33:43;98296.81;;;0.06;65.20
71889;BME280;59762;49.998;14.858;2023-04-04T06:36:08;98293.03;;;0.31;65.26
71889;BME280;59762;49.998;14.858;2023-04-04T06:38:34;98299.72;;;0.19;66.34
71889;BME280;59762;49.998;14.858;2023-04-04T06:41:00;98287.97;;;0.09;65.22
71889;BME280;59762;49.998;14.858;2023-04-04T06:43:26;98286.34;;;0.23;64.79
71889;BME280;59762;49.998;14.858;2023-04-04T06:45:52;98285.28;;;0.28;64.69
71889;BME280;59762;49.998;14.858;2023-04-04T06:48:17;98297.88;;;0.21;64.63
71889;BME280;59762;49.998;14.858;2023-04-04T06:50:43;98287.91;;;0.28;64.43
71889;BME280;59762;49.998;14.858;2023-04-04T06:53:09;98290.03;;;0.38;63.00
71889;BME280;59762;49.998;14.858;2023-04-04T06:55:35;98288.03;;;0.08;63.33
71889;BME280;59762;49.998;14.858;2023-04-04T06:58:01;98289.63;;;-0.07;64.80
71889;BME280;59762;49.998;14.858;2023-04-04T07:00:27;98272.88;;;0.31;63.69
71889;BME280;59762;49.998;14.858;2023-04-04T07:02:58;98275.28;;;0.53;62.63
71889;BME280;59762;49.998;14.858;2023-04-04T07:05:24;98283.09;;;0.88;61.25
71889;BME280;59762;49.998;14.858;2023-04-04T07:07:51;98282.78;;;0.77;61.08
71889;BME280;59762;49.998;14.858;2023-04-04T07:10:21;98278.13;;;0.82;59.59
71889;BME280;59762;49.998;14.858;2023-04-04T07:12:47;98272.78;;;0.50;61.16
71889;BME280;59762;49.998;14.858;2023-04-04T07:15:13;98276.25;;;0.33;61.71
71889;BME280;59762;49.998;14.858;2023-04-04T07:17:39;98276.75;;;0.58;62.83
71889;BME280;59762;49.998;14.858;2023-04-04T07:20:06;98279.13;;;0.97;61.42
71889;BME280;59762;49.998;14.858;2023-04-04T07:22:39;98277.78;;;1.22;59.90
71889;BME280;59762;49.998;14.858;2023-04-04T07:25:06;98271.59;;;1.23;57.09
71889;BME280;59762;49.998;14.858;2023-04-04T07:27:32;98270.47;;;1.12;56.69
71889;BME280;59762;49.998;14.858;2023-04-04T07:29:57;98272.50;;;1.39;57.75
71889;BME280;59762;49.998;14.858;2023-04-04T07:32:23;98269.41;;;1.31;54.61
71889;BME280;59762;49.998;14.858;2023-04-04T07:34:49;98269.69;;;1.42;55.45
71889;BME280;59762;49.998;14.858;2023-04-04T07:37:15;98273.13;;;1.60;56.99
71889;BME280;59762;49.998;14.858;2023-04-04T07:39:41;98261.31;;;1.67;55.48
71889;BME280;59762;49.998;14.858;2023-04-04T07:42:07;98264.72;;;2.00;53.51
71889;BME280;59762;49.998;14.858;2023-04-04T07:44:32;98266.41;;;2.16;52.91
71889;BME280;59762;49.998;14.858;2023-04-04T07:46:59;98275.50;;;1.80;53.64
71889;BME280;59762;49.998;14.858;2023-04-04T07:49:24;98260.41;;;1.83;54.39
71889;BME280;59762;49.998;14.858;2023-04-04T07:51:50;98283.66;;;1.75;55.54
71889;BME280;59762;49.998;14.858;2023-04-04T07:54:16;98266.75;;;2.55;53.09
71889;BME280;59762;49.998;14.858;2023-04-04T07:56:41;98268.59;;;2.39;54.19
71889;BME280;59762;49.998;14.858;2023-04-04T07:59:07;98268.72;;;1.28;53.81
71889;BME280;59762;49.998;14.858;2023-04-04T08:01:33;98265.59;;;1.85;54.24
71889;BME280;59762;49.998;14.858;2023-04-04T08:03:58;98266.69;;;1.65;57.32
71889;BME280;59762;49.998;14.858;2023-04-04T08:06:24;98258.41;;;1.40;55.33
71889;BME280;59762;49.998;14.858;2023-04-04T08:08:50;98260.44;;;1.35;56.16
71889;BME280;59762;49.998;14.858;2023-04-04T08:11:17;98268.47;;;1.32;55.73
71889;BME280;59762;49.998;14.858;2023-04-04T08:13:43;98266.50;;;1.03;56.67
71889;BME280;59762;49.998;14.858;2023-04-04T08:16:08;98261.28;;;1.51;55.01
71889;BME280;59762;49.998;14.858;2023-04-04T08:18:34;98263.66;;;1.40;56.47
71889;BME280;59762;49.998;14.858;2023-04-04T08:21:00;98259.97;;;1.60;58.21
71889;BME280;59762;49.998;14.858;2023-04-04T08:23:25;98256.16;;;1.65;58.50
71889;BME280;59762;49.998;14.858;2023-04-04T08:25:52;98251.72;;;1.66;54.77
71889;BME280;59762;49.998;14.858;2023-04-04T08:28:18;98252.44;;;1.85;53.97
71889;BME280;59762;49.998;14.858;2023-04-04T08:30:43;98238.66;;;2.70;52.58
71889;BME280;59762;49.998;14.858;2023-04-04T08:33:09;98244.03;;;3.26;51.46
71889;BME280;59762;49.998;14.858;2023-04-04T08:35:35;98243.16;;;2.97;51.46
71889;BME280;59762;49.998;14.858;2023-04-04T08:38:01;98235.72;;;2.60;48.65
71889;BME280;59762;49.998;14.858;2023-04-04T08:40:30;98244.13;;;2.22;49.85
71889;BME280;59762;49.998;14.858;2023-04-04T08:42:57;98229.94;;;2.54;49.24
71889;BME280;59762;49.998;14.858;2023-04-04T08:45:24;98231.56;;;2.27;49.95
71889;BME280;59762;49.998;14.858;2023-04-04T08:47:53;98237.22;;;2.64;49.05
71889;BME280;59762;49.998;14.858;2023-04-04T08:50:21;98236.59;;;2.75;50.52
71889;BME280;59762;49.998;14.858;2023-04-04T08:52:47;98232.81;;;2.65;49.47
71889;BME280;59762;49.998;14.858;2023-04-04T08:55:13;98234.75;;;2.77;51.03
71889;BME280;59762;49.998;14.858;2023-04-04T08:57:40;98231.13;;;2.64;51.13
71889;BME280;59762;49.998;14.858;2023-04-04T09:00:07;98246.34;;;2.29;49.06
71889;BME280;59762;49.998;14.858;2023-04-04T09:05:07;98243.06;;;1.95;51.36
71889;BME280;59762;49.998;14.858;2023-04-04T09:07:35;98244.59;;;1.99;49.25
71889;BME280;59762;49.998;14.858;2023-04-04T09:10:02;98237.16;;;2.36;48.54
71889;BME280;59762;49.998;14.858;2023-04-04T09:12:30;98233.03;;;2.46;48.87
71889;BME280;59762;49.998;14.858;2023-04-04T09:14:58;98228.41;;;3.37;43.78
71889;BME280;59762;49.998;14.858;2023-04-04T09:17:24;98221.66;;;3.59;46.52
71889;BME280;59762;49.998;14.858;2023-04-04T09:19:51;98221.88;;;3.42;47.41
71889;BME280;59762;49.998;14.858;2023-04-04T09:22:18;98221.59;;;3.47;47.32
71889;BME280;59762;49.998;14.858;2023-04-04T09:24:44;98222.69;;;3.01;47.23
71889;BME280;59762;49.998;14.858;2023-04-04T09:27:11;98216.41;;;3.31;45.55
71889;BME280;59762;49.998;14.858;2023-04-04T09:29:38;98226.03;;;3.32;46.98
71889;BME280;59762;49.998;14.858;2023-04-04T09:32:08;98219.91;;;3.46;47.31
71889;BME280;59762;49.998;14.858;2023-04-04T09:34:35;98230.84;;;3.26;48.78
71889;BME280;59762;49.998;14.858;2023-04-04T09:37:03;98223.75;;;2.98;48.23
71889;BME280;59762;49.998;14.858;2023-04-04T09:39:30;98226.94;;;2.46;49.03
71889;BME280;59762;49.998;14.858;2023-04-04T09:41:57;98228.22;;;2.39;50.89
71889;BME280;59762;49.998;14.858;2023-04-04T09:44:23;98225.25;;;2.29;49.26
71889;BME280;59762;49.998;14.858;2023-04-04T09:46:50;98225.69;;;2.22;51.12
71889;BME280;59762;49.998;14.858;2023-04-04T09:49:20;98232.88;;;2.04;51.29
71889;BME280;59762;49.998;14.858;2023-04-04T09:51:52;98231.34;;;2.16;50.69
71889;BME280;59762;49.998;14.858;2023-04-04T09:54:22;98223.44;;;2.45;49.87
71889;BME280;59762;49.998;14.858;2023-04-04T09:56:50;98221.66;;;2.46;49.56
71889;BME280;59762;49.998;14.858;2023-04-04T09:59:18;98228.47;;;3.21;49.82
71889;BME280;59762;49.998;14.858;2023-04-04T10:01:46;98228.88;;;3.43;48.64
71889;BME280;59762;49.998;14.858;2023-04-04T10:04:17;98228.97;;;2.70;48.03
71889;BME280;59762;49.998;14.858;2023-04-04T10:06:47;98220.31;;;2.39;50.03
71889;BME280;59762;49.998;14.858;2023-04-04T10:09:15;98214.38;;;2.65;48.23
71889;BME280;59762;49.998;14.858;2023-04-04T10:11:42;98207.38;;;3.35;48.62
71889;BME280;59762;49.998;14.858;2023-04-04T10:14:10;98208.78;;;3.55;44.75
71889;BME280;59762;49.998;14.858;2023-04-04T10:16:44;98203.19;;;3.59;46.42
71889;BME280;59762;49.998;14.858;2023-04-04T10:19:13;98207.97;;;3.67;48.30
71889;BME280;59762;49.998;14.858;2023-04-04T10:21:42;98203.97;;;3.19;47.38
71889;BME280;59762;49.998;14.858;2023-04-04T10:24:08;98206.94;;;2.71;46.19
71889;BME280;59762;49.998;14.858;2023-04-04T10:26:34;98204.84;;;2.62;47.90
71889;BME280;59762;49.998;14.858;2023-04-04T10:29:01;98214.13;;;2.97;49.11
71889;BME280;59762;49.998;14.858;2023-04-04T10:31:28;98202.78;;;2.67;49.73
71889;BME280;59762;49.998;14.858;2023-04-04T10:34:17;98207.88;;;2.70;47.18
71889;BME280;59762;49.998;14.858;2023-04-04T10:36:49;98202.88;;;2.80;47.48
71889;BME280;59762;49.998;14.858;2023-04-04T10:39:25;98199.09;;;2.26;48.30
71889;BME280;59762;49.998;14.858;2023-04-04T10:41:52;98200.16;;;2.67;47.49
71889;BME280;59762;49.998;14.858;2023-04-04T10:44:37;98187.88;;;3.78;47.90
71889;BME280;59762;49.998;14.858;2023-04-04T10:49:46;98172.69;;;4.08;47.47
71889;BME280;59762;49.998;14.858;2023-04-04T10:52:14;98193.78;;;2.99;48.17
71889;BME280;59762;49.998;14.858;2023-04-04T10:54:40;98196.00;;;2.63;48.39
71889;BME280;59762;49.998;14.858;2023-04-04T10:57:08;98177.97;;;3.13;47.43
71889;BME280;59762;49.998;14.858;2023-04-04T10:59:55;98172.50;;;3.30;46.74
71889;BME280;59762;49.998;14.858;2023-04-04T11:02:42;98167.09;;;3.32;44.81
71889;BME280;59762;49.998;14.858;2023-04-04T11:05:17;98166.91;;;2.93;45.06
71889;BME280;59762;49.998;14.858;2023-04-04T11:07:44;98158.63;;;4.08;42.70
71889;BME280;59762;49.998;14.858;2023-04-04T11:10:30;98162.56;;;3.88;45.88
71889;BME280;59762;49.998;14.858;2023-04-04T11:12:57;98161.56;;;3.08;46.99
71889;BME280;59762;49.998;14.858;2023-04-04T11:15:59;98160.25;;;2.87;46.30
71889;BME280;59762;49.998;14.858;2023-04-04T11:21:17;98152.78;;;3.76;44.98
71889;BME280;59762;49.998;14.858;2023-04-04T11:28:55;98160.34;;;3.68;45.80
71889;BME280;59762;49.998;14.858;2023-04-04T11:44:23;98165.03;;;3.23;44.84
71889;BME280;59762;49.998;14.858;2023-04-04T11:47:09;98161.47;;;3.24;44.17
71889;BME280;59762;49.998;14.858;2023-04-04T11:49:36;98157.78;;;2.98;44.45
71889;BME280;59762;49.998;14.858;2023-04-04T11:52:13;98151.44;;;3.43;42.61
71889;BME280;59762;49.998;14.858;2023-04-04T11:54:40;98144.25;;;3.85;41.21
71889;BME280;59762;49.998;14.858;2023-04-04T11:57:10;98144.34;;;3.98;40.57
71889;BME280;59762;49.998;14.858;2023-04-04T11:59:40;98146.00;;;3.32;42.26
71889;BME280;59762;49.998;14.858;2023-04-04T12:02:08;98148.66;;;3.18;43.53
71889;BME280;59762;49.998;14.858;2023-04-04T12:04:35;98155.31;;;3.37;44.63
71889;BME280;59762;49.998;14.858;2023-04-04T12:07:05;98144.16;;;4.52;44.68
71889;BME280;59762;49.998;14.858;2023-04-04T12:09:32;98145.31;;;4.48;44.95
71889;BME280;59762;49.998;14.858;2023-04-04T12:11:58;98135.19;;;4.16;43.13
71889;BME280;59762;49.998;14.858;2023-04-04T12:14:24;98141.47;;;4.01;42.45
71889;BME280;59762;49.998;14.858;2023-04-04T12:16:53;98148.59;;;3.86;42.00
71889;BME280;59762;49.998;14.858;2023-04-04T12:19:21;98139.66;;;4.28;43.73
71889;BME280;59762;49.998;14.858;2023-04-04T12:21:49;98132.81;;;4.50;42.41
71889;BME280;59762;49.998;14.858;2023-04-04T12:24:15;98124.69;;;4.53;40.68
71889;BME280;59762;49.998;14.858;2023-04-04T12:26:43;98132.41;;;3.78;42.19
71889;BME280;59762;49.998;14.858;2023-04-04T12:29:11;98143.13;;;3.63;43.56
71889;BME280;59762;49.998;14.858;2023-04-04T12:31:39;98131.44;;;3.53;42.85
71889;BME280;59762;49.998;14.858;2023-04-04T12:34:06;98132.22;;;4.20;43.69
71889;BME280;59762;49.998;14.858;2023-04-04T12:36:36;98133.06;;;4.21;41.61
71889;BME280;59762;49.998;14.858;2023-04-04T12:39:08;98127.06;;;3.92;40.23
71889;BME280;59762;49.998;14.858;2023-04-04T12:44:31;98122.34;;;3.97;41.89
71889;BME280;59762;49.998;14.858;2023-04-04T12:47:02;98123.47;;;3.93;41.52
71889;BME280;59762;49.998;14.858;2023-04-04T12:49:48;98120.59;;;4.23;42.61
71889;BME280;59762;49.998;14.858;2023-04-04T12:52:19;98118.56;;;4.65;42.77
71889;BME280;59762;49.998;14.858;2023-04-04T12:54:46;98130.94;;;4.13;40.95
71889;BME280;59762;49.998;14.858;2023-04-04T12:57:23;98123.72;;;3.50;41.72
71889;BME280;59762;49.998;14.858;2023-04-04T12:59:53;98130.72;;;3.37;43.36
71889;BME280;59762;49.998;14.858;2023-04-04T13:02:20;98132.47;;;3.50;43.73
71889;BME280;59762;49.998;14.858;2023-04-04T13:04:46;98128.19;;;3.76;42.85
71889;BME280;59762;49.998;14.858;2023-04-04T13:09:53;98117.38;;;4.44;44.13
71889;BME280;59762;49.998;14.858;2023-04-04T13:12:19;98105.69;;;4.09;44.02
71889;BME280;59762;49.998;14.858;2023-04-04T13:17:24;98110.63;;;4.01;41.06
71889;BME280;59762;49.998;14.858;2023-04-04T13:19:50;98101.06;;;4.50;41.53
71889;BME280;59762;49.998;14.858;2023-04-04T13:22:16;98097.38;;;4.28;41.38
71889;BME280;59762;49.998;14.858;2023-04-04T13:24:42;98107.63;;;3.93;44.14
71889;BME280;59762;49.998;14.858;2023-04-04T13:27:08;98102.25;;;3.95;42.93
71889;BME280;59762;49.998;14.858;2023-04-04T13:29:33;98103.41;;;4.03;43.09
71889;BME280;59762;49.998;14.858;2023-04-04T13:31:59;98113.94;;;3.78;44.33